sensor_id;sensor_type;location;lat;lon;timestamp;P1;durP1;ratioP1;P2;durP2;ratioP2
14789;SDS011;7486;51.010;10.366;2023-05-10T00:00:20;3.33;;;2.40;;
14789;SDS011;7486;51.010;10.366;2023-05-10T00:03:06;2.35;;;2.15;;
14789;SDS011;7486;51.010;10.366;2023-05-10T00:05:51;2.60;;;2.20;;
14789;SDS011;7486;51.010;10.366;2023-05-10T00:08:37;2.80;;;2.30;;
14789;SDS011;7486;51.010;10.366;2023-05-10T00:11:22;2.60;;;2.40;;
14789;SDS011;7486;51.010;10.366;2023-05-10T00:14:08;5.60;;;2.60;;
14789;SDS011;7486;51.010;10.366;2023-05-10T00:16:53;2.70;;;2.50;;
14789;SDS011;7486;51.010;10.366;2023-05-10T00:19:38;2.50;;;2.30;;
14789;SDS011;7486;51.010;10.366;2023-05-10T00:22:24;2.65;;;2.40;;
14789;SDS011;7486;51.010;10.366;2023-05-10T00:25:09;2.63;;;2.33;;
14789;SDS011;7486;51.010;10.366;2023-05-10T00:27:55;4.15;;;2.30;;
14789;SDS011;7486;51.010;10.366;2023-05-10T00:30:41;3.15;;;2.38;;
14789;SDS011;7486;51.010;10.366;2023-05-10T00:33:26;2.90;;;2.13;;
14789;SDS011;7486;51.010;10.366;2023-05-10T00:36:11;2.70;;;2.45;;
14789;SDS011;7486;51.010;10.366;2023-05-10T00:38:58;2.80;;;2.60;;
14789;SDS011;7486;51.010;10.366;2023-05-10T00:41:44;2.88;;;2.55;;
14789;SDS011;7486;51.010;10.366;2023-05-10T00:44:29;4.28;;;2.60;;
14789;SDS011;7486;51.010;10.366;2023-05-10T00:47:15;5.13;;;2.70;;
14789;SDS011;7486;51.010;10.366;2023-05-10T00:50:01;2.92;;;2.60;;
14789;SDS011;7486;51.010;10.366;2023-05-10T00:52:47;2.90;;;2.67;;
14789;SDS011;7486;51.010;10.366;2023-05-10T00:55:34;2.83;;;2.60;;
14789;SDS011;7486;51.010;10.366;2023-05-10T00:58:20;3.30;;;3.00;;
14789;SDS011;7486;51.010;10.366;2023-05-10T01:01:05;3.25;;;2.95;;
14789;SDS011;7486;51.010;10.366;2023-05-10T01:03:51;3.10;;;2.80;;
14789;SDS011;7486;51.010;10.366;2023-05-10T01:06:36;3.65;;;3.00;;
14789;SDS011;7486;51.010;10.366;2023-05-10T01:09:22;3.38;;;3.08;;
14789;SDS011;7486;51.010;10.366;2023-05-10T01:12:08;3.60;;;3.05;;
14789;SDS011;7486;51.010;10.366;2023-05-10T01:14:53;3.72;;;3.10;;
14789;SDS011;7486;51.010;10.366;2023-05-10T01:17:39;3.45;;;3.15;;
14789;SDS011;7486;51.010;10.366;2023-05-10T01:20:27;5.45;;;3.33;;
14789;SDS011;7486;51.010;10.366;2023-05-10T01:23:31;3.60;;;3.30;;
14789;SDS011;7486;51.010;10.366;2023-05-10T01:29:53;3.95;;;3.63;;
14789;SDS011;7486;51.010;10.366;2023-05-10T01:42:10;4.20;;;3.80;;
14789;SDS011;7486;51.010;10.366;2023-05-10T01:45:04;5.57;;;4.43;;
14789;SDS011;7486;51.010;10.366;2023-05-10T01:48:14;6.18;;;4.25;;
14789;SDS011;7486;51.010;10.366;2023-05-10T01:51:00;4.57;;;4.10;;
14789;SDS011;7486;51.010;10.366;2023-05-10T01:53:45;5.28;;;4.75;;
14789;SDS011;7486;51.010;10.366;2023-05-10T01:56:34;6.22;;;5.53;;
14789;SDS011;7486;51.010;10.366;2023-05-10T01:59:21;6.53;;;5.10;;
14789;SDS011;7486;51.010;10.366;2023-05-10T02:02:07;6.47;;;5.10;;
14789;SDS011;7486;51.010;10.366;2023-05-10T02:04:55;7.15;;;5.50;;
14789;SDS011;7486;51.010;10.366;2023-05-10T02:07:41;5.95;;;5.35;;
14789;SDS011;7486;51.010;10.366;2023-05-10T02:10:28;5.60;;;4.93;;
14789;SDS011;7486;51.010;10.366;2023-05-10T02:13:15;6.18;;;5.07;;
14789;SDS011;7486;51.010;10.366;2023-05-10T02:16:02;5.90;;;4.90;;
14789;SDS011;7486;51.010;10.366;2023-05-10T02:18:50;5.53;;;4.93;;
14789;SDS011;7486;51.010;10.366;2023-05-10T02:21:38;5.72;;;5.13;;
14789;SDS011;7486;51.010;10.366;2023-05-10T02:24:25;5.88;;;5.07;;
14789;SDS011;7486;51.010;10.366;2023-05-10T02:27:11;5.30;;;4.70;;
14789;SDS011;7486;51.010;10.366;2023-05-10T02:30:00;5.50;;;4.95;;
14789;SDS011;7486;51.010;10.366;2023-05-10T02:32:46;4.97;;;4.55;;
14789;SDS011;7486;51.010;10.366;2023-05-10T02:35:34;4.88;;;4.38;;
14789;SDS011;7486;51.010;10.366;2023-05-10T02:38:21;5.30;;;4.50;;
14789;SDS011;7486;51.010;10.366;2023-05-10T02:41:08;5.07;;;4.60;;
14789;SDS011;7486;51.010;10.366;2023-05-10T02:43:56;5.03;;;4.63;;
14789;SDS011;7486;51.010;10.366;2023-05-10T02:46:44;4.63;;;4.18;;
14789;SDS011;7486;51.010;10.366;2023-05-10T02:49:30;5.18;;;4.68;;
14789;SDS011;7486;51.010;10.366;2023-05-10T02:52:19;4.88;;;4.43;;
14789;SDS011;7486;51.010;10.366;2023-05-10T02:55:09;5.10;;;4.60;;
14789;SDS011;7486;51.010;10.366;2023-05-10T02:57:58;4.50;;;4.10;;
14789;SDS011;7486;51.010;10.366;2023-05-10T03:00:45;6.20;;;4.85;;
14789;SDS011;7486;51.010;10.366;2023-05-10T03:03:30;7.10;;;4.32;;
14789;SDS011;7486;51.010;10.366;2023-05-10T03:06:16;4.50;;;4.10;;
14789;SDS011;7486;51.010;10.366;2023-05-10T03:09:02;5.80;;;4.75;;
14789;SDS011;7486;51.010;10.366;2023-05-10T03:15:17;5.72;;;5.22;;
14789;SDS011;7486;51.010;10.366;2023-05-10T03:21:02;5.25;;;4.75;;
14789;SDS011;7486;51.010;10.366;2023-05-10T03:23:58;5.05;;;4.65;;
14789;SDS011;7486;51.010;10.366;2023-05-10T03:26:50;5.28;;;4.78;;
14789;SDS011;7486;51.010;10.366;2023-05-10T03:29:39;5.32;;;4.82;;
14789;SDS011;7486;51.010;10.366;2023-05-10T03:32:26;5.38;;;4.50;;
14789;SDS011;7486;51.010;10.366;2023-05-10T03:35:14;5.20;;;4.70;;
14789;SDS011;7486;51.010;10.366;2023-05-10T03:38:00;6.72;;;5.15;;
14789;SDS011;7486;51.010;10.366;2023-05-10T03:40:46;5.45;;;4.70;;
14789;SDS011;7486;51.010;10.366;2023-05-10T03:43:32;5.30;;;4.80;;
14789;SDS011;7486;51.010;10.366;2023-05-10T03:46:19;6.07;;;5.25;;
14789;SDS011;7486;51.010;10.366;2023-05-10T03:49:05;5.95;;;5.35;;
14789;SDS011;7486;51.010;10.366;2023-05-10T03:51:50;5.68;;;5.15;;
14789;SDS011;7486;51.010;10.366;2023-05-10T03:54:36;5.97;;;5.38;;
14789;SDS011;7486;51.010;10.366;2023-05-10T03:57:22;6.20;;;5.13;;
14789;SDS011;7486;51.010;10.366;2023-05-10T04:00:08;5.60;;;5.10;;
14789;SDS011;7486;51.010;10.366;2023-05-10T04:03:00;6.55;;;5.28;;
14789;SDS011;7486;51.010;10.366;2023-05-10T04:05:46;5.90;;;5.40;;
14789;SDS011;7486;51.010;10.366;2023-05-10T04:08:32;6.10;;;5.50;;
14789;SDS011;7486;51.010;10.366;2023-05-10T04:11:17;6.28;;;5.18;;
14789;SDS011;7486;51.010;10.366;2023-05-10T04:14:03;7.35;;;5.88;;
14789;SDS011;7486;51.010;10.366;2023-05-10T04:16:48;7.45;;;5.65;;
14789;SDS011;7486;51.010;10.366;2023-05-10T04:19:33;5.85;;;5.03;;
14789;SDS011;7486;51.010;10.366;2023-05-10T04:22:19;6.55;;;5.88;;
14789;SDS011;7486;51.010;10.366;2023-05-10T04:25:29;6.60;;;5.38;;
14789;SDS011;7486;51.010;10.366;2023-05-10T04:28:14;5.60;;;5.10;;
14789;SDS011;7486;51.010;10.366;2023-05-10T04:31:01;6.72;;;5.53;;
14789;SDS011;7486;51.010;10.366;2023-05-10T04:33:53;6.97;;;5.82;;
14789;SDS011;7486;51.010;10.366;2023-05-10T04:36:38;5.38;;;4.90;;
14789;SDS011;7486;51.010;10.366;2023-05-10T04:39:24;5.97;;;5.15;;
14789;SDS011;7486;51.010;10.366;2023-05-10T04:42:09;6.95;;;5.35;;
14789;SDS011;7486;51.010;10.366;2023-05-10T04:44:54;5.20;;;4.78;;
14789;SDS011;7486;51.010;10.366;2023-05-10T04:47:40;4.90;;;4.50;;
14789;SDS011;7486;51.010;10.366;2023-05-10T04:50:25;5.47;;;4.45;;
14789;SDS011;7486;51.010;10.366;2023-05-10T04:53:11;4.88;;;4.47;;
14789;SDS011;7486;51.010;10.366;2023-05-10T04:55:59;6.82;;;4.40;;
14789;SDS011;7486;51.010;10.366;2023-05-10T04:58:44;5.10;;;4.43;;
14789;SDS011;7486;51.010;10.366;2023-05-10T05:01:30;5.30;;;4.40;;
14789;SDS011;7486;51.010;10.366;2023-05-10T05:04:15;4.40;;;4.00;;
14789;SDS011;7486;51.010;10.366;2023-05-10T05:07:01;4.18;;;3.78;;
14789;SDS011;7486;51.010;10.366;2023-05-10T05:09:47;4.05;;;3.65;;
14789;SDS011;7486;51.010;10.366;2023-05-10T05:12:32;3.83;;;3.53;;
14789;SDS011;7486;51.010;10.366;2023-05-10T05:15:17;3.58;;;3.28;;
14789;SDS011;7486;51.010;10.366;2023-05-10T05:18:03;5.20;;;4.00;;
14789;SDS011;7486;51.010;10.366;2023-05-10T05:20:48;4.03;;;3.67;;
14789;SDS011;7486;51.010;10.366;2023-05-10T05:23:34;3.88;;;3.47;;
14789;SDS011;7486;51.010;10.366;2023-05-10T05:26:19;3.83;;;3.35;;
14789;SDS011;7486;51.010;10.366;2023-05-10T05:29:04;5.15;;;3.33;;
14789;SDS011;7486;51.010;10.366;2023-05-10T05:31:50;3.88;;;3.55;;
14789;SDS011;7486;51.010;10.366;2023-05-10T05:34:39;3.33;;;3.13;;
14789;SDS011;7486;51.010;10.366;2023-05-10T05:37:24;3.40;;;3.10;;
14789;SDS011;7486;51.010;10.366;2023-05-10T05:40:12;3.35;;;3.05;;
14789;SDS011;7486;51.010;10.366;2023-05-10T05:42:57;4.97;;;3.25;;
14789;SDS011;7486;51.010;10.366;2023-05-10T05:45:43;3.53;;;3.13;;
14789;SDS011;7486;51.010;10.366;2023-05-10T05:48:29;3.60;;;3.30;;
14789;SDS011;7486;51.010;10.366;2023-05-10T05:51:15;3.45;;;3.15;;
14789;SDS011;7486;51.010;10.366;2023-05-10T05:54:00;3.10;;;2.90;;
14789;SDS011;7486;51.010;10.366;2023-05-10T05:56:45;3.00;;;2.80;;
14789;SDS011;7486;51.010;10.366;2023-05-10T05:59:31;3.13;;;2.92;;
14789;SDS011;7486;51.010;10.366;2023-05-10T06:02:16;3.40;;;3.10;;
14789;SDS011;7486;51.010;10.366;2023-05-10T06:05:01;3.13;;;2.83;;
14789;SDS011;7486;51.010;10.366;2023-05-10T06:07:47;2.83;;;2.63;;
14789;SDS011;7486;51.010;10.366;2023-05-10T06:10:32;2.92;;;2.72;;
14789;SDS011;7486;51.010;10.366;2023-05-10T06:13:17;2.88;;;2.67;;
14789;SDS011;7486;51.010;10.366;2023-05-10T06:16:03;2.65;;;2.45;;
14789;SDS011;7486;51.010;10.366;2023-05-10T06:18:49;2.38;;;2.20;;
14789;SDS011;7486;51.010;10.366;2023-05-10T06:21:34;2.83;;;2.00;;
14789;SDS011;7486;51.010;10.366;2023-05-10T06:24:19;2.33;;;2.13;;
14789;SDS011;7486;51.010;10.366;2023-05-10T06:27:05;2.08;;;1.90;;
14789;SDS011;7486;51.010;10.366;2023-05-10T06:29:51;1.73;;;1.60;;
14789;SDS011;7486;51.010;10.366;2023-05-10T06:32:53;2.00;;;1.90;;
14789;SDS011;7486;51.010;10.366;2023-05-10T06:35:39;1.67;;;1.58;;
14789;SDS011;7486;51.010;10.366;2023-05-10T06:38:24;1.92;;;1.73;;
14789;SDS011;7486;51.010;10.366;2023-05-10T06:41:10;1.70;;;1.60;;
14789;SDS011;7486;51.010;10.366;2023-05-10T06:43:56;1.67;;;1.40;;
14789;SDS011;7486;51.010;10.366;2023-05-10T06:46:41;1.40;;;1.30;;
14789;SDS011;7486;51.010;10.366;2023-05-10T06:49:26;1.33;;;1.23;;
14789;SDS011;7486;51.010;10.366;2023-05-10T06:52:12;1.02;;;0.95;;
14789;SDS011;7486;51.010;10.366;2023-05-10T06:54:57;0.80;;;0.80;;
14789;SDS011;7486;51.010;10.366;2023-05-10T06:57:42;0.80;;;0.80;;
14789;SDS011;7486;51.010;10.366;2023-05-10T07:00:28;0.68;;;0.50;;
14789;SDS011;7486;51.010;10.366;2023-05-10T07:03:13;0.52;;;0.52;;
14789;SDS011;7486;51.010;10.366;2023-05-10T07:06:02;1.52;;;0.60;;
14789;SDS011;7486;51.010;10.366;2023-05-10T07:08:48;1.02;;;0.70;;
14789;SDS011;7486;51.010;10.366;2023-05-10T07:11:33;0.40;;;0.40;;
14789;SDS011;7486;51.010;10.366;2023-05-10T07:14:19;0.50;;;0.50;;
14789;SDS011;7486;51.010;10.366;2023-05-10T07:17:05;0.80;;;0.55;;
14789;SDS011;7486;51.010;10.366;2023-05-10T07:19:50;0.50;;;0.50;;
14789;SDS011;7486;51.010;10.366;2023-05-10T07:22:36;0.57;;;0.57;;
14789;SDS011;7486;51.010;10.366;2023-05-10T07:25:23;0.95;;;0.60;;
14789;SDS011;7486;51.010;10.366;2023-05-10T07:28:08;0.45;;;0.45;;
14789;SDS011;7486;51.010;10.366;2023-05-10T07:30:54;0.50;;;0.50;;
14789;SDS011;7486;51.010;10.366;2023-05-10T07:33:40;0.40;;;0.40;;
14789;SDS011;7486;51.010;10.366;2023-05-10T07:36:26;0.55;;;0.52;;
14789;SDS011;7486;51.010;10.366;2023-05-10T07:39:11;0.38;;;0.38;;
14789;SDS011;7486;51.010;10.366;2023-05-10T07:42:09;0.88;;;0.50;;
14789;SDS011;7486;51.010;10.366;2023-05-10T07:44:54;0.45;;;0.45;;
14789;SDS011;7486;51.010;10.366;2023-05-10T07:47:39;0.63;;;0.60;;
14789;SDS011;7486;51.010;10.366;2023-05-10T07:50:25;0.50;;;0.50;;
14789;SDS011;7486;51.010;10.366;2023-05-10T07:53:10;0.45;;;0.45;;
14789;SDS011;7486;51.010;10.366;2023-05-10T07:55:59;1.77;;;0.60;;
14789;SDS011;7486;51.010;10.366;2023-05-10T07:59:04;0.38;;;0.38;;
14789;SDS011;7486;51.010;10.366;2023-05-10T08:01:49;0.43;;;0.43;;
14789;SDS011;7486;51.010;10.366;2023-05-10T08:04:35;0.40;;;0.40;;
14789;SDS011;7486;51.010;10.366;2023-05-10T08:07:21;0.47;;;0.40;;
14789;SDS011;7486;51.010;10.366;2023-05-10T08:10:06;0.65;;;0.57;;
14789;SDS011;7486;51.010;10.366;2023-05-10T08:12:53;0.30;;;0.30;;
14789;SDS011;7486;51.010;10.366;2023-05-10T08:15:38;0.30;;;0.30;;
14789;SDS011;7486;51.010;10.366;2023-05-10T08:18:23;0.40;;;0.40;;
14789;SDS011;7486;51.010;10.366;2023-05-10T08:21:08;0.28;;;0.28;;
14789;SDS011;7486;51.010;10.366;2023-05-10T08:23:54;0.30;;;0.30;;
14789;SDS011;7486;51.010;10.366;2023-05-10T08:26:39;0.40;;;0.40;;
14789;SDS011;7486;51.010;10.366;2023-05-10T08:29:25;0.38;;;0.38;;
14789;SDS011;7486;51.010;10.366;2023-05-10T08:32:14;0.50;;;0.47;;
14789;SDS011;7486;51.010;10.366;2023-05-10T08:34:59;1.50;;;0.40;;
14789;SDS011;7486;51.010;10.366;2023-05-10T08:37:45;0.73;;;0.40;;
14789;SDS011;7486;51.010;10.366;2023-05-10T08:40:30;0.38;;;0.38;;
14789;SDS011;7486;51.010;10.366;2023-05-10T08:43:15;0.50;;;0.50;;
14789;SDS011;7486;51.010;10.366;2023-05-10T08:46:01;0.45;;;0.45;;
14789;SDS011;7486;51.010;10.366;2023-05-10T08:48:50;0.52;;;0.52;;
14789;SDS011;7486;51.010;10.366;2023-05-10T08:51:36;0.65;;;0.65;;
14789;SDS011;7486;51.010;10.366;2023-05-10T08:54:27;0.60;;;0.60;;
14789;SDS011;7486;51.010;10.366;2023-05-10T08:57:13;0.60;;;0.60;;
14789;SDS011;7486;51.010;10.366;2023-05-10T09:00:00;0.50;;;0.50;;
14789;SDS011;7486;51.010;10.366;2023-05-10T09:02:46;0.80;;;0.50;;
14789;SDS011;7486;51.010;10.366;2023-05-10T09:05:34;0.40;;;0.40;;
14789;SDS011;7486;51.010;10.366;2023-05-10T09:08:21;0.80;;;0.50;;
14789;SDS011;7486;51.010;10.366;2023-05-10T09:11:08;0.60;;;0.60;;
14789;SDS011;7486;51.010;10.366;2023-05-10T09:13:55;2.92;;;0.70;;
14789;SDS011;7486;51.010;10.366;2023-05-10T09:16:41;0.80;;;0.73;;
14789;SDS011;7486;51.010;10.366;2023-05-10T09:19:27;0.60;;;0.55;;
14789;SDS011;7486;51.010;10.366;2023-05-10T09:22:13;2.17;;;0.82;;
14789;SDS011;7486;51.010;10.366;2023-05-10T09:27:54;0.85;;;0.60;;
14789;SDS011;7486;51.010;10.366;2023-05-10T09:30:40;1.60;;;0.88;;
14789;SDS011;7486;51.010;10.366;2023-05-10T09:33:27;0.70;;;0.70;;
14789;SDS011;7486;51.010;10.366;2023-05-10T09:36:12;0.68;;;0.68;;
14789;SDS011;7486;51.010;10.366;2023-05-10T09:38:58;0.75;;;0.70;;
14789;SDS011;7486;51.010;10.366;2023-05-10T09:41:43;0.77;;;0.75;;
14789;SDS011;7486;51.010;10.366;2023-05-10T09:44:29;1.00;;;0.90;;
14789;SDS011;7486;51.010;10.366;2023-05-10T09:47:19;1.13;;;0.70;;
14789;SDS011;7486;51.010;10.366;2023-05-10T09:50:04;0.70;;;0.70;;
14789;SDS011;7486;51.010;10.366;2023-05-10T09:52:57;0.80;;;0.80;;
14789;SDS011;7486;51.010;10.366;2023-05-10T09:55:45;1.70;;;0.70;;
14789;SDS011;7486;51.010;10.366;2023-05-10T09:58:32;0.90;;;0.60;;
14789;SDS011;7486;51.010;10.366;2023-05-10T10:01:25;1.15;;;0.90;;
14789;SDS011;7486;51.010;10.366;2023-05-10T10:04:11;0.90;;;0.70;;
14789;SDS011;7486;51.010;10.366;2023-05-10T10:07:01;1.63;;;0.90;;
14789;SDS011;7486;51.010;10.366;2023-05-10T10:09:48;1.13;;;0.98;;
14789;SDS011;7486;51.010;10.366;2023-05-10T10:12:33;1.35;;;0.80;;
14789;SDS011;7486;51.010;10.366;2023-05-10T10:15:22;0.82;;;0.82;;
14789;SDS011;7486;51.010;10.366;2023-05-10T10:18:08;1.40;;;0.80;;
14789;SDS011;7486;51.010;10.366;2023-05-10T10:20:58;1.00;;;0.90;;
14789;SDS011;7486;51.010;10.366;2023-05-10T10:23:44;1.00;;;1.00;;
14789;SDS011;7486;51.010;10.366;2023-05-10T10:26:29;1.20;;;1.10;;
14789;SDS011;7486;51.010;10.366;2023-05-10T10:29:36;1.27;;;1.17;;
14789;SDS011;7486;51.010;10.366;2023-05-10T10:32:33;1.67;;;1.30;;
14789;SDS011;7486;51.010;10.366;2023-05-10T10:35:29;1.30;;;1.20;;
14789;SDS011;7486;51.010;10.366;2023-05-10T10:38:16;2.20;;;1.20;;
14789;SDS011;7486;51.010;10.366;2023-05-10T10:41:20;2.40;;;1.15;;
14789;SDS011;7486;51.010;10.366;2023-05-10T10:44:33;1.10;;;1.00;;
14789;SDS011;7486;51.010;10.366;2023-05-10T10:47:22;2.30;;;1.05;;
14789;SDS011;7486;51.010;10.366;2023-05-10T10:50:07;0.80;;;0.80;;
14789;SDS011;7486;51.010;10.366;2023-05-10T10:52:53;1.30;;;0.90;;
14789;SDS011;7486;51.010;10.366;2023-05-10T10:55:48;1.08;;;0.90;;
14789;SDS011;7486;51.010;10.366;2023-05-10T10:58:34;1.77;;;1.30;;
14789;SDS011;7486;51.010;10.366;2023-05-10T11:01:20;1.95;;;1.33;;
14789;SDS011;7486;51.010;10.366;2023-05-10T11:07:15;1.50;;;1.40;;
14789;SDS011;7486;51.010;10.366;2023-05-10T11:10:04;2.17;;;1.10;;
14789;SDS011;7486;51.010;10.366;2023-05-10T11:12:51;1.00;;;1.00;;
14789;SDS011;7486;51.010;10.366;2023-05-10T11:15:50;1.00;;;1.00;;
14789;SDS011;7486;51.010;10.366;2023-05-10T11:18:36;0.80;;;0.80;;
14789;SDS011;7486;51.010;10.366;2023-05-10T11:21:22;0.85;;;0.85;;
14789;SDS011;7486;51.010;10.366;2023-05-10T11:24:12;0.98;;;0.90;;
14789;SDS011;7486;51.010;10.366;2023-05-10T11:26:58;0.75;;;0.75;;
14789;SDS011;7486;51.010;10.366;2023-05-10T11:29:50;1.77;;;0.90;;
14789;SDS011;7486;51.010;10.366;2023-05-10T11:32:40;0.80;;;0.80;;
14789;SDS011;7486;51.010;10.366;2023-05-10T11:35:28;0.85;;;0.85;;
14789;SDS011;7486;51.010;10.366;2023-05-10T11:38:14;0.90;;;0.80;;
14789;SDS011;7486;51.010;10.366;2023-05-10T11:40:59;0.80;;;0.80;;
14789;SDS011;7486;51.010;10.366;2023-05-10T11:43:49;1.02;;;0.80;;
14789;SDS011;7486;51.010;10.366;2023-05-10T11:46:37;2.63;;;0.77;;
14789;SDS011;7486;51.010;10.366;2023-05-10T11:49:25;0.70;;;0.70;;
14789;SDS011;7486;51.010;10.366;2023-05-10T11:52:10;0.80;;;0.80;;
14789;SDS011;7486;51.010;10.366;2023-05-10T11:54:57;0.85;;;0.70;;
14789;SDS011;7486;51.010;10.366;2023-05-10T11:57:42;0.60;;;0.60;;
14789;SDS011;7486;51.010;10.366;2023-05-10T12:00:28;1.73;;;0.65;;
14789;SDS011;7486;51.010;10.366;2023-05-10T12:03:14;0.93;;;0.93;;
14789;SDS011;7486;51.010;10.366;2023-05-10T12:06:00;1.38;;;0.90;;
14789;SDS011;7486;51.010;10.366;2023-05-10T12:08:47;1.00;;;0.70;;
14789;SDS011;7486;51.010;10.366;2023-05-10T12:11:36;0.68;;;0.60;;
14789;SDS011;7486;51.010;10.366;2023-05-10T12:14:27;0.70;;;0.70;;
14789;SDS011;7486;51.010;10.366;2023-05-10T12:17:13;1.65;;;0.73;;
14789;SDS011;7486;51.010;10.366;2023-05-10T12:19:59;0.70;;;0.70;;
14789;SDS011;7486;51.010;10.366;2023-05-10T12:22:58;1.60;;;0.80;;
14789;SDS011;7486;51.010;10.366;2023-05-10T12:25:44;1.85;;;1.35;;
14789;SDS011;7486;51.010;10.366;2023-05-10T12:28:30;0.63;;;0.63;;
14789;SDS011;7486;51.010;10.366;2023-05-10T12:31:16;2.03;;;0.98;;
14789;SDS011;7486;51.010;10.366;2023-05-10T12:34:02;0.80;;;0.80;;
14789;SDS011;7486;51.010;10.366;2023-05-10T12:36:49;0.60;;;0.60;;
14789;SDS011;7486;51.010;10.366;2023-05-10T12:39:42;0.60;;;0.60;;
14789;SDS011;7486;51.010;10.366;2023-05-10T12:42:29;1.10;;;0.90;;
14789;SDS011;7486;51.010;10.366;2023-05-10T12:45:17;0.75;;;0.75;;
14789;SDS011;7486;51.010;10.366;2023-05-10T12:48:02;1.92;;;0.82;;
14789;SDS011;7486;51.010;10.366;2023-05-10T12:50:48;2.15;;;1.90;;
14789;SDS011;7486;51.010;10.366;2023-05-10T12:53:33;2.53;;;1.95;;
14789;SDS011;7486;51.010;10.366;2023-05-10T12:56:19;1.30;;;1.20;;
14789;SDS011;7486;51.010;10.366;2023-05-10T12:59:04;3.10;;;1.30;;
14789;SDS011;7486;51.010;10.366;2023-05-10T13:01:49;1.60;;;1.15;;
14789;SDS011;7486;51.010;10.366;2023-05-10T13:04:34;2.45;;;1.20;;
14789;SDS011;7486;51.010;10.366;2023-05-10T13:07:20;2.97;;;1.30;;
14789;SDS011;7486;51.010;10.366;2023-05-10T13:10:05;2.35;;;1.20;;
14789;SDS011;7486;51.010;10.366;2023-05-10T13:12:52;1.25;;;1.17;;
14789;SDS011;7486;51.010;10.366;2023-05-10T13:15:37;1.15;;;1.15;;
14789;SDS011;7486;51.010;10.366;2023-05-10T13:18:23;1.50;;;1.40;;
14789;SDS011;7486;51.010;10.366;2023-05-10T13:21:08;1.27;;;1.20;;
14789;SDS011;7486;51.010;10.366;2023-05-10T13:23:53;1.38;;;1.27;;
14789;SDS011;7486;51.010;10.366;2023-05-10T13:26:39;1.00;;;1.00;;
14789;SDS011;7486;51.010;10.366;2023-05-10T13:29:25;1.98;;;1.42;;
14789;SDS011;7486;51.010;10.366;2023-05-10T13:32:10;2.83;;;1.70;;
14789;SDS011;7486;51.010;10.366;2023-05-10T13:34:56;1.00;;;1.00;;
14789;SDS011;7486;51.010;10.366;2023-05-10T13:37:41;4.28;;;1.20;;
14789;SDS011;7486;51.010;10.366;2023-05-10T13:40:26;0.88;;;0.88;;
14789;SDS011;7486;51.010;10.366;2023-05-10T13:43:12;1.02;;;0.93;;
14789;SDS011;7486;51.010;10.366;2023-05-10T13:45:57;1.20;;;0.90;;
14789;SDS011;7486;51.010;10.366;2023-05-10T13:48:44;1.30;;;1.00;;
14789;SDS011;7486;51.010;10.366;2023-05-10T13:51:30;1.45;;;1.00;;
14789;SDS011;7486;51.010;10.366;2023-05-10T13:54:15;1.23;;;0.90;;
14789;SDS011;7486;51.010;10.366;2023-05-10T13:57:01;1.08;;;0.95;;
14789;SDS011;7486;51.010;10.366;2023-05-10T13:59:46;1.50;;;1.00;;
14789;SDS011;7486;51.010;10.366;2023-05-10T14:02:31;0.63;;;0.63;;
14789;SDS011;7486;51.010;10.366;2023-05-10T14:05:17;1.00;;;0.90;;
14789;SDS011;7486;51.010;10.366;2023-05-10T14:08:06;0.82;;;0.80;;
14789;SDS011;7486;51.010;10.366;2023-05-10T14:10:51;0.70;;;0.70;;
14789;SDS011;7486;51.010;10.366;2023-05-10T14:13:36;0.93;;;0.90;;
14789;SDS011;7486;51.010;10.366;2023-05-10T14:16:21;0.80;;;0.80;;
14789;SDS011;7486;51.010;10.366;2023-05-10T14:19:07;1.60;;;1.00;;
14789;SDS011;7486;51.010;10.366;2023-05-10T14:21:52;2.20;;;1.10;;
14789;SDS011;7486;51.010;10.366;2023-05-10T14:24:37;0.77;;;0.75;;
14789;SDS011;7486;51.010;10.366;2023-05-10T14:27:23;1.15;;;0.80;;
14789;SDS011;7486;51.010;10.366;2023-05-10T14:30:09;1.85;;;1.13;;
14789;SDS011;7486;51.010;10.366;2023-05-10T14:32:54;1.17;;;0.90;;
14789;SDS011;7486;51.010;10.366;2023-05-10T14:35:40;0.93;;;0.93;;
14789;SDS011;7486;51.010;10.366;2023-05-10T14:38:25;0.98;;;0.98;;
14789;SDS011;7486;51.010;10.366;2023-05-10T14:41:10;0.90;;;0.90;;
14789;SDS011;7486;51.010;10.366;2023-05-10T14:43:56;1.73;;;1.13;;
14789;SDS011;7486;51.010;10.366;2023-05-10T14:46:41;0.88;;;0.85;;
14789;SDS011;7486;51.010;10.366;2023-05-10T14:49:26;1.00;;;0.90;;
14789;SDS011;7486;51.010;10.366;2023-05-10T14:52:12;4.50;;;1.00;;
14789;SDS011;7486;51.010;10.366;2023-05-10T14:54:57;1.27;;;0.90;;
14789;SDS011;7486;51.010;10.366;2023-05-10T14:57:42;2.05;;;1.08;;
14789;SDS011;7486;51.010;10.366;2023-05-10T15:00:28;2.50;;;1.15;;
14789;SDS011;7486;51.010;10.366;2023-05-10T15:03:15;1.27;;;1.10;;
14789;SDS011;7486;51.010;10.366;2023-05-10T15:06:01;1.38;;;1.20;;
14789;SDS011;7486;51.010;10.366;2023-05-10T15:08:46;1.73;;;1.20;;
14789;SDS011;7486;51.010;10.366;2023-05-10T15:11:31;1.25;;;1.15;;
14789;SDS011;7486;51.010;10.366;2023-05-10T15:14:17;1.10;;;0.88;;
14789;SDS011;7486;51.010;10.366;2023-05-10T15:17:02;1.20;;;0.85;;
14789;SDS011;7486;51.010;10.366;2023-05-10T15:19:48;0.95;;;0.70;;
14789;SDS011;7486;51.010;10.366;2023-05-10T15:22:33;1.85;;;0.70;;
14789;SDS011;7486;51.010;10.366;2023-05-10T15:25:18;1.60;;;0.70;;
14789;SDS011;7486;51.010;10.366;2023-05-10T15:28:04;0.70;;;0.70;;
14789;SDS011;7486;51.010;10.366;2023-05-10T15:30:50;1.77;;;0.80;;
14789;SDS011;7486;51.010;10.366;2023-05-10T15:33:36;1.98;;;1.05;;
14789;SDS011;7486;51.010;10.366;2023-05-10T15:36:22;2.25;;;0.88;;
14789;SDS011;7486;51.010;10.366;2023-05-10T15:39:07;1.58;;;1.02;;
14789;SDS011;7486;51.010;10.366;2023-05-10T15:41:53;1.98;;;0.90;;
14789;SDS011;7486;51.010;10.366;2023-05-10T15:44:38;2.38;;;0.90;;
14789;SDS011;7486;51.010;10.366;2023-05-10T15:47:24;2.95;;;1.10;;
14789;SDS011;7486;51.010;10.366;2023-05-10T15:50:10;2.30;;;1.20;;
14789;SDS011;7486;51.010;10.366;2023-05-10T15:52:55;1.33;;;1.08;;
14789;SDS011;7486;51.010;10.366;2023-05-10T15:55:41;0.70;;;0.70;;
14789;SDS011;7486;51.010;10.366;2023-05-10T15:58:26;1.50;;;1.10;;
14789;SDS011;7486;51.010;10.366;2023-05-10T16:01:11;2.33;;;1.92;;
14789;SDS011;7486;51.010;10.366;2023-05-10T16:03:57;3.05;;;2.35;;
14789;SDS011;7486;51.010;10.366;2023-05-10T16:06:42;1.60;;;1.50;;
14789;SDS011;7486;51.010;10.366;2023-05-10T16:09:28;1.92;;;1.10;;
14789;SDS011;7486;51.010;10.366;2023-05-10T16:12:13;1.20;;;1.10;;
14789;SDS011;7486;51.010;10.366;2023-05-10T16:14:59;1.33;;;1.20;;
14789;SDS011;7486;51.010;10.366;2023-05-10T16:17:44;2.95;;;1.27;;
14789;SDS011;7486;51.010;10.366;2023-05-10T16:20:31;4.40;;;1.58;;
14789;SDS011;7486;51.010;10.366;2023-05-10T16:23:16;1.30;;;1.20;;
14789;SDS011;7486;51.010;10.366;2023-05-10T16:26:02;1.65;;;1.50;;
14789;SDS011;7486;51.010;10.366;2023-05-10T16:28:47;3.05;;;1.80;;
14789;SDS011;7486;51.010;10.366;2023-05-10T16:31:32;1.90;;;1.67;;
14789;SDS011;7486;51.010;10.366;2023-05-10T16:34:18;2.65;;;1.55;;
14789;SDS011;7486;51.010;10.366;2023-05-10T16:37:03;1.50;;;1.40;;
14789;SDS011;7486;51.010;10.366;2023-05-10T16:39:49;1.70;;;1.60;;
14789;SDS011;7486;51.010;10.366;2023-05-10T16:42:34;1.92;;;1.60;;
14789;SDS011;7486;51.010;10.366;2023-05-10T16:45:20;2.22;;;1.50;;
14789;SDS011;7486;51.010;10.366;2023-05-10T16:48:05;2.75;;;1.70;;
14789;SDS011;7486;51.010;10.366;2023-05-10T16:50:51;1.40;;;1.30;;
14789;SDS011;7486;51.010;10.366;2023-05-10T16:53:36;1.90;;;1.73;;
14789;SDS011;7486;51.010;10.366;2023-05-10T16:56:21;1.98;;;1.52;;
14789;SDS011;7486;51.010;10.366;2023-05-10T16:59:06;1.60;;;1.50;;
14789;SDS011;7486;51.010;10.366;2023-05-10T17:01:53;2.58;;;1.50;;
14789;SDS011;7486;51.010;10.366;2023-05-10T17:04:38;1.42;;;1.33;;
14789;SDS011;7486;51.010;10.366;2023-05-10T17:07:24;2.38;;;1.60;;
14789;SDS011;7486;51.010;10.366;2023-05-10T17:10:10;1.58;;;1.40;;